Time;durP1;ratioP1;P1;durP2;ratioP2;P2;SDS_P1;SDS_P2;PMS_P1;PMS_P2;Temp;Humidity;BMP_temperature;BMP_pressure;BME280_temperature;BME280_humidity;BME280_pressure;Samples;Min_cycle;Max_cycle;Signal;HPM_P1;HPM_P2
2022/08/08 00:11:19;;;;;;;9.05;5.20;;;;;;;22.77;68.24;100193.94;31365758;28;20068;-76
2022/08/08 00:26:31;;;;;;;6.95;4.90;;;;;;;22.58;68.10;100195.66;31391319;28;20053;-75
2022/08/08 00:42:14;;;;;;;10.57;4.85;;;;;;;22.44;70.25;100210.41;31352914;28;20156;-77
2022/08/08 00:57:54;;;;;;;8.57;5.32;;;;;;;22.35;70.64;100202.34;31368244;28;20482;-76
2022/08/08 01:13:10;;;;;;;8.43;5.22;;;;;;;22.23;70.87;100206.31;31357062;28;20053;-75
2022/08/08 01:28:40;;;;;;;5.82;4.90;;;;;;;22.32;70.96;100198.56;31368101;28;20040;-76
2022/08/08 01:44:11;;;;;;;5.50;4.90;;;;;;;22.32;70.91;100208.88;31361781;28;20059;-74
2022/08/08 01:59:40;;;;;;;11.85;5.25;;;;;;;22.31;70.26;100221.94;31351973;28;20135;-75
2022/08/08 02:15:08;;;;;;;9.55;5.55;;;;;;;22.35;70.03;100238.31;31346972;28;20053;-76
2022/08/08 02:30:21;;;;;;;12.55;5.43;;;;;;;22.29;70.96;100243.06;31351632;28;20517;-76
2022/08/08 02:46:20;;;;;;;8.50;5.63;;;;;;;22.23;71.60;100245.03;31363491;28;20146;-78
2022/08/08 03:01:49;;;;;;;6.68;4.82;;;;;;;22.39;69.46;100258.19;31246311;28;20081;-74
2022/08/08 03:17:04;;;;;;;7.20;5.57;;;;;;;22.63;69.03;100272.38;31367621;28;20052;-76
2022/08/08 03:47:31;;;;;;;13.75;6.13;;;;;;;23.20;67.81;100292.69;31351923;28;20057;-77
2022/08/08 04:03:01;;;;;;;10.18;6.20;;;;;;;23.36;67.35;100303.81;31351519;28;20057;-75
2022/08/08 04:18:05;;;;;;;7.13;5.00;;;;;;;23.62;66.15;100313.94;31370770;28;20058;-78
2022/08/08 04:33:09;;;;;;;11.98;5.63;;;;;;;24.12;66.14;100328.47;31365487;28;20111;-76
2022/08/08 04:48:13;;;;;;;8.40;5.53;;;;;;;24.62;66.42;100330.41;31364661;28;20110;-78
2022/08/08 05:03:16;;;;;;;7.72;5.40;;;;;;;25.23;62.31;100337.75;31347257;28;20064;-77
2022/08/08 05:18:38;;;;;;;9.47;6.37;;;;;;;25.84;58.87;100350.47;31364050;28;20488;-75
2022/08/08 05:33:39;;;;;;;;;;;;;;;26.43;54.31;100360.06;31351279;28;20049;-76
2022/08/08 05:48:50;;;;;;;16.42;9.32;;;;;;;27.13;52.91;100361.03;31363013;28;19925;-76
2022/08/08 06:04:01;;;;;;;16.63;9.10;;;;;;;27.61;50.63;100359.34;31340036;28;20053;-77
2022/08/08 06:19:15;;;;;;;20.65;9.88;;;;;;;28.13;48.90;100362.25;31333660;28;20049;-76
2022/08/08 06:34:18;;;;;;;18.00;8.90;;;;;;;29.11;46.84;100361.41;31344600;28;20060;-76
2022/08/08 06:49:29;;;;;;;24.00;11.93;;;;;;;30.00;43.69;100369.81;31346782;28;20132;-76
2022/08/08 07:05:13;;;;;;;23.63;12.13;;;;;;;30.60;42.80;100372.28;31373602;28;20760;-76
2022/08/08 07:20:28;;;;;;;31.98;14.00;;;;;;;31.60;40.14;100387.44;31354123;28;20045;-76
2022/08/08 07:35:33;;;;;;;24.10;10.98;;;;;;;31.99;39.63;100384.13;31361823;28;20062;-77
2022/08/08 07:50:37;;;;;;;15.00;8.52;;;;;;;32.96;37.90;100386.59;31345044;28;20051;-76
2022/08/08 08:05:44;;;;;;;22.48;10.02;;;;;;;33.78;35.82;100380.38;31380177;28;20049;-76
2022/08/08 08:20:54;;;;;;;9.60;4.30;;;;;;;34.17;33.34;100390.72;31368974;28;20053;-77
2022/08/08 08:35:57;;;;;;;6.72;4.60;;;;;;;34.80;31.14;100392.38;31379029;28;20053;-76
2022/08/08 08:51:24;;;;;;;7.03;3.38;;;;;;;35.37;28.95;100394.88;31355540;28;20483;-75
2022/08/08 09:06:28;;;;;;;4.68;3.63;;;;;;;35.45;29.55;100387.00;31371216;28;20045;-78
2022/08/08 09:21:35;;;;;;;8.23;3.55;;;;;;;36.23;28.17;100382.38;31367710;28;20049;-78
2022/08/08 09:37:08;;;;;;;8.50;3.30;;;;;;;36.71;26.46;100378.88;31373956;28;20057;-80
2022/08/08 09:52:32;;;;;;;5.03;2.90;;;;;;;37.08;26.89;100370.97;31375514;28;20667;-86
2022/08/08 10:07:55;;;;;;;6.43;1.90;;;;;;;37.43;22.25;100371.31;31364674;28;20045;-81
2022/08/08 10:23:04;;;;;;;3.85;2.17;;;;;;;37.87;21.80;100368.00;31357049;28;20048;-83
2022/08/08 10:38:15;;;;;;;6.40;2.00;;;;;;;38.48;21.29;100346.59;31380307;28;20465;-84
2022/08/08 10:53:18;;;;;;;4.93;2.05;;;;;;;38.93;19.25;100347.38;31359388;28;20063;-85
2022/08/08 11:08:40;;;;;;;2.17;1.63;;;;;;;38.59;17.86;100340.25;31167936;28;20061;-84
2022/08/08 11:23:57;;;;;;;4.10;1.25;;;;;;;39.19;18.25;100334.88;30998965;28;20085;-83
2022/08/08 11:39:06;;;;;;;6.72;1.75;;;;;;;38.45;18.39;100327.97;30974896;28;20054;-81
2022/08/08 11:54:13;;;;;;;28.50;17.85;;;;;;;36.81;20.02;100332.31;31020420;28;20054;-81
2022/08/08 12:09:34;;;;;;;4.50;1.73;;;;;;;35.55;20.14;100328.53;30997093;28;20058;-79
2022/08/08 12:24:57;;;;;;;9.13;2.72;;;;;;;34.93;21.11;100320.78;31037266;28;20475;-80
2022/08/08 12:40:17;;;;;;;2.58;1.83;;;;;;;34.62;20.52;100315.50;31027551;28;20058;-80
2022/08/08 12:55:25;;;;;;;9.15;1.70;;;;;;;34.32;21.79;100313.78;30992828;28;20046;-81
2022/08/08 13:10:54;;;;;;;4.72;1.58;;;;;;;33.99;21.20;100312.41;31013800;28;20116;-80
2022/08/08 13:25:59;;;;;;;3.05;1.33;;;;;;;33.62;22.90;100320.59;30983304;28;20054;-75
2022/08/08 13:41:13;;;;;;;2.53;1.58;;;;;;;33.43;23.60;100309.84;30980664;28;20051;-81
2022/08/08 13:56:34;;;;;;;5.38;1.58;;;;;;;33.06;23.83;100316.44;31033641;28;20050;-87
2022/08/08 14:11:46;;;;;;;2.88;1.95;;;;;;;32.99;24.82;100308.78;30992038;28;20054;-85
2022/08/08 14:26:53;;;;;;;6.47;1.77;;;;;;;32.77;25.00;100313.97;30962778;28;20051;-74
2022/08/08 14:42:02;;;;;;;6.25;1.85;;;;;;;32.62;24.32;100313.97;30976330;28;20412;-74
2022/08/08 14:57:08;;;;;;;3.38;1.85;;;;;;;32.50;25.77;100312.91;30959807;28;20043;-78
2022/08/08 15:12:11;;;;;;;3.97;2.88;;;;;;;32.28;25.51;100313.72;31003809;28;20150;-84
2022/08/08 15:27:15;;;;;;;3.35;1.63;;;;;;;32.02;26.99;100309.25;31006307;28;20480;-82
2022/08/08 15:42:37;;;;;;;5.47;1.80;;;;;;;31.79;28.55;100310.03;30987149;28;20065;-76
2022/08/08 15:57:40;;;;;;;8.18;3.53;;;;;;;31.62;29.10;100318.22;30987327;28;20472;-81
2022/08/08 16:12:42;;;;;;;3.85;2.63;;;;;;;31.32;30.58;100316.13;31037513;28;20062;-79
2022/08/08 16:28:04;;;;;;;6.35;2.30;;;;;;;31.03;31.84;100325.94;31011885;28;20053;-81
2022/08/08 16:43:23;;;;;;;4.70;2.13;;;;;;;30.71;32.41;100324.31;31057197;28;20070;-73
2022/08/08 16:58:26;;;;;;;3.70;2.33;;;;;;;30.49;32.58;100341.75;31021791;28;20496;-74
2022/08/08 17:13:35;;;;;;;2.88;2.00;;;;;;;30.18;32.94;100347.16;31070646;28;20058;-73
2022/08/08 17:28:50;;;;;;;4.85;2.00;;;;;;;29.93;32.99;100343.22;30992329;28;20056;-74
2022/08/08 17:43:53;;;;;;;7.43;2.65;;;;;;;29.63;33.38;100365.34;30991706;28;20053;-74
2022/08/08 17:59:03;;;;;;;7.40;5.83;;;;;;;29.29;33.93;100374.47;31010657;28;20051;-73
2022/08/08 18:14:05;;;;;;;3.20;2.20;;;;;;;29.01;34.47;100368.75;30991446;28;20084;-73
2022/08/08 18:29:27;;;;;;;16.52;10.43;;;;;;;28.75;35.06;100375.09;31022813;28;20145;-76
2022/08/08 18:44:34;;;;;;;5.75;4.03;;;;;;;28.47;35.93;100372.84;30952518;28;20056;-74
2022/08/08 18:59:36;;;;;;;6.65;2.88;;;;;;;28.21;36.57;100372.81;30969198;28;20046;-72
2022/08/08 19:14:41;;;;;;;5.32;3.53;;;;;;;27.84;37.19;100391.16;30965951;28;20054;-72
2022/08/08 19:29:43;;;;;;;8.50;3.22;;;;;;;27.60;38.68;100388.50;30962420;28;20050;-73
2022/08/08 19:44:46;;;;;;;4.53;2.72;;;;;;;27.35;39.42;100399.72;31008014;28;20078;-75
2022/08/08 19:59:51;;;;;;;6.40;3.70;;;;;;;26.71;41.10;100402.25;31038137;28;20492;-74
2022/08/08 20:14:54;;;;;;;7.57;4.28;;;;;;;26.21;42.81;100402.75;31001635;28;20127;-72
2022/08/08 20:29:58;;;;;;;7.55;3.40;;;;;;;25.90;43.59;100404.00;30982916;28;20058;-73
2022/08/08 20:45:07;;;;;;;6.88;3.22;;;;;;;25.72;45.93;100396.31;30971876;28;20104;-73
2022/08/08 21:00:10;;;;;;;4.93;3.17;;;;;;;25.52;45.65;100402.97;30969294;28;20047;-73
2022/08/08 21:15:13;;;;;;;7.30;3.42;;;;;;;25.33;46.83;100400.06;30969936;28;20057;-72
2022/08/08 21:30:34;;;;;;;4.27;3.33;;;;;;;25.07;48.10;100403.19;30999727;28;20058;-73
2022/08/08 21:45:36;;;;;;;3.78;3.38;;;;;;;24.95;50.19;100406.56;30972294;28;20112;-73
2022/08/08 22:01:00;;;;;;;6.13;4.00;;;;;;;24.78;51.51;100398.25;30967703;28;20104;-72
2022/08/08 22:16:05;;;;;;;4.78;3.80;;;;;;;24.71;53.02;100393.97;30954295;28;20050;-72
2022/08/08 22:31:10;;;;;;;5.03;3.75;;;;;;;24.54;54.94;100390.50;30961836;28;20530;-71
2022/08/08 22:46:13;;;;;;;7.28;4.18;;;;;;;24.41;55.61;100398.59;30974522;28;20065;-73
2022/08/08 23:01:16;;;;;;;7.45;4.55;;;;;;;24.34;56.60;100388.00;30976073;28;20136;-71
2022/08/08 23:16:39;;;;;;;6.77;4.47;;;;;;;24.38;57.06;100388.50;30971299;28;20054;-74
2022/08/08 23:31:44;;;;;;;6.07;5.00;;;;;;;24.31;57.80;100377.94;30973283;28;20053;-72
2022/08/08 23:46:50;;;;;;;6.80;4.75;;;;;;;24.20;59.74;100377.91;30967924;28;20046;-71
